createdAt,value
2023-01-19T00:09:47.067Z,36
2023-01-19T00:38:58.447Z,41
2023-01-19T01:08:15.788Z,44
2023-01-19T01:37:29.842Z,44
2023-01-19T02:06:48.755Z,42
2023-01-19T02:36:08.460Z,45
2023-01-19T03:05:32.110Z,45
2023-01-19T03:34:45.239Z,43
2023-01-19T04:04:07.997Z,41
2023-01-19T04:33:27.068Z,41
2023-01-19T05:02:45.488Z,41
2023-01-19T05:31:54.858Z,40
2023-01-19T06:01:10.899Z,44
2023-01-19T06:30:18.914Z,39
2023-01-19T06:59:40.724Z,38
2023-01-19T07:28:59.177Z,39
2023-01-19T07:58:15.709Z,36
2023-01-19T08:27:23.411Z,36
2023-01-19T08:56:40.104Z,35
2023-01-19T09:25:55.977Z,38
2023-01-19T09:55:09.021Z,43
2023-01-19T10:24:33.803Z,31
2023-01-19T10:53:53.396Z,28
2023-01-19T11:23:12.469Z,28
2023-01-19T11:52:36.935Z,28
2023-01-19T12:21:48.993Z,28
2023-01-19T12:51:01.303Z,28
2023-01-19T13:20:21.644Z,29
2023-01-19T13:49:38.868Z,28
2023-01-19T14:18:59.471Z,28
2023-01-19T14:48:20.934Z,28
2023-01-19T15:17:42.167Z,28
2023-01-19T15:47:06.076Z,32
2023-01-19T16:16:25.566Z,32
2023-01-19T16:45:38.855Z,32
2023-01-19T17:14:53.449Z,36
2023-01-19T17:44:07.989Z,35
2023-01-19T18:13:25.725Z,32
2023-01-19T18:42:41.691Z,33
2023-01-19T19:12:01.063Z,32
2023-01-19T19:41:18.578Z,32
2023-01-19T20:10:26.882Z,39
2023-01-19T20:39:45.730Z,35
2023-01-19T21:09:03.013Z,36
2023-01-19T21:38:15.495Z,37
2023-01-19T22:07:36.227Z,35
2023-01-19T22:36:52.277Z,33
2023-01-19T23:06:13.434Z,35
2023-01-19T23:35:29.461Z,34
